sensor_id;sensor_type;location;lat;lon;timestamp;P1;durP1;ratioP1;P2;durP2;ratioP2
71125;SDS011;58785;55.566;38.058;2023-05-10T00:01:32;16.30;;;7.57;;
71125;SDS011;58785;55.566;38.058;2023-05-10T00:03:57;21.00;;;7.20;;
71125;SDS011;58785;55.566;38.058;2023-05-10T00:06:23;16.67;;;7.00;;
71125;SDS011;58785;55.566;38.058;2023-05-10T00:08:48;19.45;;;7.07;;
71125;SDS011;58785;55.566;38.058;2023-05-10T00:11:14;17.93;;;7.20;;
71125;SDS011;58785;55.566;38.058;2023-05-10T00:13:40;14.68;;;6.75;;
71125;SDS011;58785;55.566;38.058;2023-05-10T00:16:05;15.07;;;6.50;;
71125;SDS011;58785;55.566;38.058;2023-05-10T00:18:31;18.85;;;6.90;;
71125;SDS011;58785;55.566;38.058;2023-05-10T00:20:57;13.77;;;6.47;;
71125;SDS011;58785;55.566;38.058;2023-05-10T00:23:23;15.70;;;6.53;;
71125;SDS011;58785;55.566;38.058;2023-05-10T00:25:48;13.93;;;6.43;;
71125;SDS011;58785;55.566;38.058;2023-05-10T00:28:14;15.75;;;7.20;;
71125;SDS011;58785;55.566;38.058;2023-05-10T00:30:40;17.23;;;7.40;;
71125;SDS011;58785;55.566;38.058;2023-05-10T00:33:05;17.98;;;7.90;;
71125;SDS011;58785;55.566;38.058;2023-05-10T00:35:31;20.48;;;7.82;;
71125;SDS011;58785;55.566;38.058;2023-05-10T00:37:57;19.07;;;8.40;;
71125;SDS011;58785;55.566;38.058;2023-05-10T00:40:23;22.20;;;7.97;;
71125;SDS011;58785;55.566;38.058;2023-05-10T00:42:48;18.77;;;7.77;;
71125;SDS011;58785;55.566;38.058;2023-05-10T00:45:14;16.75;;;8.15;;
71125;SDS011;58785;55.566;38.058;2023-05-10T00:47:40;18.13;;;7.67;;
71125;SDS011;58785;55.566;38.058;2023-05-10T00:50:06;22.08;;;8.77;;
71125;SDS011;58785;55.566;38.058;2023-05-10T00:52:32;19.57;;;7.77;;
71125;SDS011;58785;55.566;38.058;2023-05-10T00:54:58;17.10;;;7.63;;
71125;SDS011;58785;55.566;38.058;2023-05-10T00:57:24;20.75;;;8.40;;
71125;SDS011;58785;55.566;38.058;2023-05-10T00:59:50;18.30;;;7.82;;
71125;SDS011;58785;55.566;38.058;2023-05-10T01:02:16;19.57;;;7.70;;
71125;SDS011;58785;55.566;38.058;2023-05-10T01:04:41;18.58;;;8.90;;
71125;SDS011;58785;55.566;38.058;2023-05-10T01:07:08;19.83;;;7.93;;
71125;SDS011;58785;55.566;38.058;2023-05-10T01:09:34;18.17;;;7.78;;
71125;SDS011;58785;55.566;38.058;2023-05-10T01:12:00;20.90;;;7.63;;
71125;SDS011;58785;55.566;38.058;2023-05-10T01:14:28;18.08;;;7.47;;
71125;SDS011;58785;55.566;38.058;2023-05-10T01:16:54;17.67;;;7.20;;
71125;SDS011;58785;55.566;38.058;2023-05-10T01:19:25;17.17;;;7.20;;
71125;SDS011;58785;55.566;38.058;2023-05-10T01:22:03;17.40;;;6.95;;
71125;SDS011;58785;55.566;38.058;2023-05-10T01:32:42;21.58;;;7.32;;
71125;SDS011;58785;55.566;38.058;2023-05-10T01:35:33;21.55;;;7.47;;
71125;SDS011;58785;55.566;38.058;2023-05-10T01:38:44;17.13;;;7.15;;
71125;SDS011;58785;55.566;38.058;2023-05-10T01:44:18;21.00;;;7.53;;
71125;SDS011;58785;55.566;38.058;2023-05-10T01:47:10;18.13;;;7.93;;
71125;SDS011;58785;55.566;38.058;2023-05-10T01:50:00;19.17;;;7.47;;
71125;SDS011;58785;55.566;38.058;2023-05-10T01:52:41;17.80;;;6.85;;
71125;SDS011;58785;55.566;38.058;2023-05-10T01:55:09;22.42;;;7.22;;
71125;SDS011;58785;55.566;38.058;2023-05-10T01:57:40;18.57;;;7.07;;
71125;SDS011;58785;55.566;38.058;2023-05-10T02:00:09;15.70;;;6.90;;
71125;SDS011;58785;55.566;38.058;2023-05-10T02:02:37;18.50;;;7.53;;
71125;SDS011;58785;55.566;38.058;2023-05-10T02:05:07;15.85;;;6.28;;
71125;SDS011;58785;55.566;38.058;2023-05-10T02:07:37;17.80;;;6.68;;
71125;SDS011;58785;55.566;38.058;2023-05-10T02:10:04;17.20;;;7.17;;
71125;SDS011;58785;55.566;38.058;2023-05-10T02:12:34;17.42;;;7.75;;
71125;SDS011;58785;55.566;38.058;2023-05-10T02:15:02;24.10;;;7.68;;
71125;SDS011;58785;55.566;38.058;2023-05-10T02:17:31;17.58;;;7.05;;
71125;SDS011;58785;55.566;38.058;2023-05-10T02:20:01;22.63;;;9.05;;
71125;SDS011;58785;55.566;38.058;2023-05-10T02:22:29;20.90;;;7.57;;
71125;SDS011;58785;55.566;38.058;2023-05-10T02:24:55;22.17;;;7.80;;
71125;SDS011;58785;55.566;38.058;2023-05-10T02:27:23;15.50;;;7.50;;
71125;SDS011;58785;55.566;38.058;2023-05-10T02:29:52;15.05;;;7.28;;
71125;SDS011;58785;55.566;38.058;2023-05-10T02:32:19;15.68;;;6.80;;
71125;SDS011;58785;55.566;38.058;2023-05-10T02:34:47;13.97;;;5.90;;
71125;SDS011;58785;55.566;38.058;2023-05-10T02:37:18;17.55;;;6.00;;
71125;SDS011;58785;55.566;38.058;2023-05-10T02:39:46;14.15;;;6.53;;
71125;SDS011;58785;55.566;38.058;2023-05-10T02:42:14;14.57;;;6.60;;
71125;SDS011;58785;55.566;38.058;2023-05-10T02:44:43;17.38;;;7.78;;
71125;SDS011;58785;55.566;38.058;2023-05-10T02:47:13;17.47;;;7.27;;
71125;SDS011;58785;55.566;38.058;2023-05-10T02:49:39;21.10;;;8.23;;
71125;SDS011;58785;55.566;38.058;2023-05-10T02:52:05;19.30;;;8.23;;
71125;SDS011;58785;55.566;38.058;2023-05-10T02:54:37;21.42;;;7.75;;
71125;SDS011;58785;55.566;38.058;2023-05-10T02:57:08;16.40;;;6.47;;
71125;SDS011;58785;55.566;38.058;2023-05-10T02:59:40;19.40;;;6.83;;
71125;SDS011;58785;55.566;38.058;2023-05-10T03:02:08;15.80;;;7.20;;
71125;SDS011;58785;55.566;38.058;2023-05-10T03:04:35;18.77;;;7.05;;
71125;SDS011;58785;55.566;38.058;2023-05-10T03:07:01;18.40;;;6.60;;
71125;SDS011;58785;55.566;38.058;2023-05-10T03:09:27;17.13;;;7.03;;
71125;SDS011;58785;55.566;38.058;2023-05-10T03:14:38;19.10;;;6.75;;
71125;SDS011;58785;55.566;38.058;2023-05-10T03:17:29;23.60;;;7.65;;
71125;SDS011;58785;55.566;38.058;2023-05-10T03:22:31;17.23;;;7.22;;
71125;SDS011;58785;55.566;38.058;2023-05-10T03:25:00;20.15;;;8.00;;
71125;SDS011;58785;55.566;38.058;2023-05-10T03:27:37;17.25;;;7.05;;
71125;SDS011;58785;55.566;38.058;2023-05-10T03:30:07;17.85;;;8.20;;
71125;SDS011;58785;55.566;38.058;2023-05-10T03:32:35;20.30;;;8.17;;
71125;SDS011;58785;55.566;38.058;2023-05-10T03:35:06;21.05;;;7.80;;
71125;SDS011;58785;55.566;38.058;2023-05-10T03:37:35;17.85;;;7.07;;
71125;SDS011;58785;55.566;38.058;2023-05-10T03:40:01;20.50;;;7.40;;
71125;SDS011;58785;55.566;38.058;2023-05-10T03:42:28;16.30;;;6.67;;
71125;SDS011;58785;55.566;38.058;2023-05-10T03:44:54;18.42;;;7.57;;
71125;SDS011;58785;55.566;38.058;2023-05-10T03:47:20;18.30;;;7.93;;
71125;SDS011;58785;55.566;38.058;2023-05-10T03:49:46;19.97;;;7.63;;
71125;SDS011;58785;55.566;38.058;2023-05-10T03:52:11;16.50;;;6.90;;
71125;SDS011;58785;55.566;38.058;2023-05-10T03:54:37;22.00;;;8.77;;
71125;SDS011;58785;55.566;38.058;2023-05-10T03:57:03;20.08;;;7.13;;
71125;SDS011;58785;55.566;38.058;2023-05-10T03:59:29;20.33;;;8.50;;
71125;SDS011;58785;55.566;38.058;2023-05-10T04:01:55;20.48;;;7.32;;
71125;SDS011;58785;55.566;38.058;2023-05-10T04:04:21;24.23;;;8.05;;
71125;SDS011;58785;55.566;38.058;2023-05-10T04:06:48;18.02;;;8.45;;
71125;SDS011;58785;55.566;38.058;2023-05-10T04:09:14;19.57;;;7.93;;
71125;SDS011;58785;55.566;38.058;2023-05-10T04:11:40;19.55;;;7.53;;
71125;SDS011;58785;55.566;38.058;2023-05-10T04:14:06;16.38;;;7.60;;
71125;SDS011;58785;55.566;38.058;2023-05-10T04:16:31;17.83;;;7.47;;
71125;SDS011;58785;55.566;38.058;2023-05-10T04:18:57;14.68;;;7.20;;
71125;SDS011;58785;55.566;38.058;2023-05-10T04:21:23;27.77;;;7.97;;
71125;SDS011;58785;55.566;38.058;2023-05-10T04:23:49;22.98;;;7.88;;
71125;SDS011;58785;55.566;38.058;2023-05-10T04:26:15;17.83;;;7.47;;
71125;SDS011;58785;55.566;38.058;2023-05-10T04:28:40;19.70;;;8.00;;
71125;SDS011;58785;55.566;38.058;2023-05-10T04:31:07;18.27;;;7.28;;
71125;SDS011;58785;55.566;38.058;2023-05-10T04:33:34;20.17;;;7.72;;
71125;SDS011;58785;55.566;38.058;2023-05-10T04:36:01;13.37;;;5.97;;
71125;SDS011;58785;55.566;38.058;2023-05-10T04:38:27;19.02;;;7.13;;
71125;SDS011;58785;55.566;38.058;2023-05-10T04:40:53;18.42;;;7.60;;
71125;SDS011;58785;55.566;38.058;2023-05-10T04:43:19;19.95;;;8.77;;
71125;SDS011;58785;55.566;38.058;2023-05-10T04:45:45;17.98;;;8.32;;
71125;SDS011;58785;55.566;38.058;2023-05-10T04:48:11;23.43;;;7.80;;
71125;SDS011;58785;55.566;38.058;2023-05-10T04:50:38;17.73;;;6.50;;
71125;SDS011;58785;55.566;38.058;2023-05-10T04:53:04;18.13;;;6.85;;
71125;SDS011;58785;55.566;38.058;2023-05-10T04:55:30;16.63;;;7.05;;
71125;SDS011;58785;55.566;38.058;2023-05-10T04:57:56;16.50;;;6.63;;
71125;SDS011;58785;55.566;38.058;2023-05-10T05:00:22;12.88;;;5.22;;
71125;SDS011;58785;55.566;38.058;2023-05-10T05:02:48;16.55;;;6.60;;
71125;SDS011;58785;55.566;38.058;2023-05-10T05:05:14;14.18;;;6.10;;
71125;SDS011;58785;55.566;38.058;2023-05-10T05:07:40;16.17;;;5.85;;
71125;SDS011;58785;55.566;38.058;2023-05-10T05:10:07;14.90;;;5.50;;
71125;SDS011;58785;55.566;38.058;2023-05-10T05:12:34;11.73;;;4.93;;
71125;SDS011;58785;55.566;38.058;2023-05-10T05:15:00;12.27;;;5.00;;
71125;SDS011;58785;55.566;38.058;2023-05-10T05:17:26;10.75;;;4.28;;
71125;SDS011;58785;55.566;38.058;2023-05-10T05:19:52;15.33;;;3.80;;
71125;SDS011;58785;55.566;38.058;2023-05-10T05:22:18;15.40;;;4.50;;
71125;SDS011;58785;55.566;38.058;2023-05-10T05:24:52;14.95;;;6.10;;
71125;SDS011;58785;55.566;38.058;2023-05-10T05:27:22;12.45;;;4.32;;
71125;SDS011;58785;55.566;38.058;2023-05-10T05:29:53;13.60;;;5.15;;
71125;SDS011;58785;55.566;38.058;2023-05-10T05:32:19;12.77;;;4.93;;
71125;SDS011;58785;55.566;38.058;2023-05-10T05:34:46;11.65;;;4.10;;
71125;SDS011;58785;55.566;38.058;2023-05-10T05:37:13;13.52;;;3.50;;
71125;SDS011;58785;55.566;38.058;2023-05-10T05:39:40;11.82;;;4.40;;
71125;SDS011;58785;55.566;38.058;2023-05-10T05:42:06;12.48;;;4.10;;
71125;SDS011;58785;55.566;38.058;2023-05-10T05:44:32;12.20;;;4.30;;
71125;SDS011;58785;55.566;38.058;2023-05-10T05:46:58;10.02;;;4.35;;
71125;SDS011;58785;55.566;38.058;2023-05-10T05:49:24;10.35;;;4.03;;
71125;SDS011;58785;55.566;38.058;2023-05-10T05:51:50;14.20;;;4.67;;
71125;SDS011;58785;55.566;38.058;2023-05-10T05:54:16;13.38;;;4.88;;
71125;SDS011;58785;55.566;38.058;2023-05-10T05:56:42;13.35;;;6.47;;
71125;SDS011;58785;55.566;38.058;2023-05-10T05:59:09;19.93;;;8.33;;
71125;SDS011;58785;55.566;38.058;2023-05-10T06:01:35;15.48;;;6.50;;
71125;SDS011;58785;55.566;38.058;2023-05-10T06:04:02;16.35;;;4.80;;
71125;SDS011;58785;55.566;38.058;2023-05-10T06:06:30;13.07;;;4.93;;
71125;SDS011;58785;55.566;38.058;2023-05-10T06:08:57;13.93;;;5.43;;
71125;SDS011;58785;55.566;38.058;2023-05-10T06:11:23;12.55;;;6.03;;
71125;SDS011;58785;55.566;38.058;2023-05-10T06:13:49;13.57;;;6.18;;
71125;SDS011;58785;55.566;38.058;2023-05-10T06:16:14;14.33;;;6.63;;
71125;SDS011;58785;55.566;38.058;2023-05-10T06:18:40;13.98;;;5.53;;
71125;SDS011;58785;55.566;38.058;2023-05-10T06:21:06;13.65;;;5.32;;
71125;SDS011;58785;55.566;38.058;2023-05-10T06:23:32;13.17;;;5.47;;
71125;SDS011;58785;55.566;38.058;2023-05-10T06:25:58;10.45;;;5.30;;
71125;SDS011;58785;55.566;38.058;2023-05-10T06:28:23;16.20;;;5.97;;
71125;SDS011;58785;55.566;38.058;2023-05-10T06:30:49;12.32;;;4.88;;
71125;SDS011;58785;55.566;38.058;2023-05-10T06:33:15;10.80;;;5.00;;
71125;SDS011;58785;55.566;38.058;2023-05-10T06:35:41;14.23;;;5.10;;
71125;SDS011;58785;55.566;38.058;2023-05-10T06:38:06;14.38;;;4.80;;
71125;SDS011;58785;55.566;38.058;2023-05-10T06:40:32;20.13;;;5.17;;
71125;SDS011;58785;55.566;38.058;2023-05-10T06:42:58;12.73;;;5.40;;
71125;SDS011;58785;55.566;38.058;2023-05-10T06:45:24;14.15;;;4.72;;
71125;SDS011;58785;55.566;38.058;2023-05-10T06:47:49;14.27;;;5.10;;
71125;SDS011;58785;55.566;38.058;2023-05-10T06:50:15;14.52;;;5.70;;
71125;SDS011;58785;55.566;38.058;2023-05-10T06:52:41;12.27;;;5.00;;
71125;SDS011;58785;55.566;38.058;2023-05-10T06:55:08;12.63;;;5.03;;
71125;SDS011;58785;55.566;38.058;2023-05-10T06:57:34;12.27;;;4.75;;
71125;SDS011;58785;55.566;38.058;2023-05-10T06:59:59;13.77;;;4.40;;
71125;SDS011;58785;55.566;38.058;2023-05-10T07:02:25;7.88;;;3.40;;
71125;SDS011;58785;55.566;38.058;2023-05-10T07:04:51;8.60;;;3.60;;
71125;SDS011;58785;55.566;38.058;2023-05-10T07:07:17;13.13;;;3.33;;
71125;SDS011;58785;55.566;38.058;2023-05-10T07:09:43;11.30;;;3.45;;
71125;SDS011;58785;55.566;38.058;2023-05-10T07:12:10;10.07;;;4.20;;
71125;SDS011;58785;55.566;38.058;2023-05-10T07:14:35;8.10;;;3.03;;
71125;SDS011;58785;55.566;38.058;2023-05-10T07:17:01;9.47;;;2.20;;
71125;SDS011;58785;55.566;38.058;2023-05-10T07:19:27;5.53;;;1.80;;
71125;SDS011;58785;55.566;38.058;2023-05-10T07:21:54;4.40;;;1.50;;
71125;SDS011;58785;55.566;38.058;2023-05-10T07:24:20;8.48;;;2.10;;
71125;SDS011;58785;55.566;38.058;2023-05-10T07:26:46;8.50;;;1.98;;
71125;SDS011;58785;55.566;38.058;2023-05-10T07:29:11;7.33;;;2.97;;
71125;SDS011;58785;55.566;38.058;2023-05-10T07:31:37;6.60;;;1.50;;
71125;SDS011;58785;55.566;38.058;2023-05-10T07:34:03;5.37;;;1.37;;
71125;SDS011;58785;55.566;38.058;2023-05-10T07:36:28;6.03;;;1.80;;
71125;SDS011;58785;55.566;38.058;2023-05-10T07:38:54;10.20;;;1.70;;
71125;SDS011;58785;55.566;38.058;2023-05-10T07:41:19;5.18;;;1.88;;
71125;SDS011;58785;55.566;38.058;2023-05-10T07:43:46;4.37;;;1.50;;
71125;SDS011;58785;55.566;38.058;2023-05-10T07:46:11;4.20;;;1.45;;
71125;SDS011;58785;55.566;38.058;2023-05-10T07:48:37;4.80;;;1.70;;
71125;SDS011;58785;55.566;38.058;2023-05-10T07:51:03;5.25;;;1.17;;
71125;SDS011;58785;55.566;38.058;2023-05-10T07:53:28;4.30;;;1.53;;
71125;SDS011;58785;55.566;38.058;2023-05-10T07:55:54;5.50;;;1.50;;
71125;SDS011;58785;55.566;38.058;2023-05-10T07:58:23;5.95;;;1.48;;
71125;SDS011;58785;55.566;38.058;2023-05-10T08:00:50;4.57;;;1.60;;
71125;SDS011;58785;55.566;38.058;2023-05-10T08:03:16;5.75;;;1.27;;
71125;SDS011;58785;55.566;38.058;2023-05-10T08:05:41;4.20;;;1.27;;
71125;SDS011;58785;55.566;38.058;2023-05-10T08:08:07;4.50;;;1.50;;
71125;SDS011;58785;55.566;38.058;2023-05-10T08:10:33;4.90;;;1.52;;
71125;SDS011;58785;55.566;38.058;2023-05-10T08:12:59;7.35;;;1.75;;
71125;SDS011;58785;55.566;38.058;2023-05-10T08:15:24;10.37;;;1.63;;
71125;SDS011;58785;55.566;38.058;2023-05-10T08:17:53;5.03;;;1.40;;
71125;SDS011;58785;55.566;38.058;2023-05-10T08:20:19;8.05;;;1.80;;
71125;SDS011;58785;55.566;38.058;2023-05-10T08:22:45;4.40;;;1.50;;
71125;SDS011;58785;55.566;38.058;2023-05-10T08:25:12;6.47;;;1.63;;
71125;SDS011;58785;55.566;38.058;2023-05-10T08:27:37;5.85;;;1.60;;
71125;SDS011;58785;55.566;38.058;2023-05-10T08:30:03;4.33;;;1.33;;
71125;SDS011;58785;55.566;38.058;2023-05-10T08:32:32;4.40;;;1.60;;
71125;SDS011;58785;55.566;38.058;2023-05-10T08:34:59;9.88;;;2.15;;
71125;SDS011;58785;55.566;38.058;2023-05-10T08:37:25;8.83;;;2.13;;
71125;SDS011;58785;55.566;38.058;2023-05-10T08:39:51;7.22;;;2.10;;
71125;SDS011;58785;55.566;38.058;2023-05-10T08:42:19;5.65;;;1.95;;
71125;SDS011;58785;55.566;38.058;2023-05-10T08:44:48;6.65;;;2.30;;
71125;SDS011;58785;55.566;38.058;2023-05-10T08:47:15;4.57;;;1.60;;
71125;SDS011;58785;55.566;38.058;2023-05-10T08:49:43;6.40;;;1.98;;
71125;SDS011;58785;55.566;38.058;2023-05-10T08:52:13;7.03;;;2.08;;
71125;SDS011;58785;55.566;38.058;2023-05-10T08:54:42;4.70;;;1.70;;
71125;SDS011;58785;55.566;38.058;2023-05-10T08:57:09;6.20;;;1.90;;
71125;SDS011;58785;55.566;38.058;2023-05-10T08:59:36;5.60;;;1.90;;
71125;SDS011;58785;55.566;38.058;2023-05-10T09:02:04;5.65;;;2.00;;
71125;SDS011;58785;55.566;38.058;2023-05-10T09:04:30;5.68;;;1.70;;
71125;SDS011;58785;55.566;38.058;2023-05-10T09:06:56;5.00;;;1.65;;
71125;SDS011;58785;55.566;38.058;2023-05-10T09:09:22;5.17;;;1.73;;
71125;SDS011;58785;55.566;38.058;2023-05-10T09:11:50;6.45;;;2.20;;
71125;SDS011;58785;55.566;38.058;2023-05-10T09:14:17;5.90;;;1.92;;
71125;SDS011;58785;55.566;38.058;2023-05-10T09:16:44;6.85;;;2.33;;
71125;SDS011;58785;55.566;38.058;2023-05-10T09:19:10;5.97;;;2.38;;
71125;SDS011;58785;55.566;38.058;2023-05-10T09:21:37;4.53;;;1.53;;
71125;SDS011;58785;55.566;38.058;2023-05-10T09:24:03;5.35;;;1.67;;
71125;SDS011;58785;55.566;38.058;2023-05-10T09:26:31;5.53;;;2.05;;
71125;SDS011;58785;55.566;38.058;2023-05-10T09:28:57;14.07;;;2.00;;
71125;SDS011;58785;55.566;38.058;2023-05-10T09:31:24;7.00;;;2.00;;
71125;SDS011;58785;55.566;38.058;2023-05-10T09:34:07;9.70;;;2.05;;
71125;SDS011;58785;55.566;38.058;2023-05-10T09:36:33;7.57;;;2.30;;
71125;SDS011;58785;55.566;38.058;2023-05-10T09:38:59;5.40;;;2.20;;
71125;SDS011;58785;55.566;38.058;2023-05-10T09:41:24;6.13;;;2.30;;
71125;SDS011;58785;55.566;38.058;2023-05-10T09:43:54;6.53;;;2.40;;
71125;SDS011;58785;55.566;38.058;2023-05-10T09:46:21;6.10;;;2.10;;
71125;SDS011;58785;55.566;38.058;2023-05-10T09:48:50;6.68;;;2.08;;
71125;SDS011;58785;55.566;38.058;2023-05-10T09:51:19;6.60;;;2.20;;
71125;SDS011;58785;55.566;38.058;2023-05-10T09:53:48;5.20;;;1.85;;
71125;SDS011;58785;55.566;38.058;2023-05-10T09:56:34;5.25;;;1.92;;
71125;SDS011;58785;55.566;38.058;2023-05-10T09:59:04;6.13;;;1.98;;
71125;SDS011;58785;55.566;38.058;2023-05-10T10:01:31;5.18;;;2.08;;
71125;SDS011;58785;55.566;38.058;2023-05-10T10:03:57;6.03;;;2.50;;
71125;SDS011;58785;55.566;38.058;2023-05-10T10:06:23;5.88;;;2.15;;
71125;SDS011;58785;55.566;38.058;2023-05-10T10:08:50;6.32;;;2.35;;
71125;SDS011;58785;55.566;38.058;2023-05-10T10:11:16;6.90;;;2.58;;
71125;SDS011;58785;55.566;38.058;2023-05-10T10:13:42;5.47;;;2.20;;
71125;SDS011;58785;55.566;38.058;2023-05-10T10:16:08;9.73;;;2.30;;
71125;SDS011;58785;55.566;38.058;2023-05-10T10:18:35;6.90;;;2.20;;
71125;SDS011;58785;55.566;38.058;2023-05-10T10:21:06;5.88;;;2.20;;
71125;SDS011;58785;55.566;38.058;2023-05-10T10:23:34;6.07;;;1.60;;
71125;SDS011;58785;55.566;38.058;2023-05-10T10:26:01;5.83;;;2.40;;
71125;SDS011;58785;55.566;38.058;2023-05-10T10:28:35;5.82;;;1.83;;
71125;SDS011;58785;55.566;38.058;2023-05-10T10:36:46;5.05;;;2.20;;
71125;SDS011;58785;55.566;38.058;2023-05-10T10:39:15;6.00;;;2.10;;
71125;SDS011;58785;55.566;38.058;2023-05-10T10:41:54;4.80;;;1.98;;
71125;SDS011;58785;55.566;38.058;2023-05-10T10:52:15;6.50;;;2.30;;
71125;SDS011;58785;55.566;38.058;2023-05-10T10:55:13;5.72;;;2.00;;
71125;SDS011;58785;55.566;38.058;2023-05-10T11:02:46;6.18;;;2.10;;
71125;SDS011;58785;55.566;38.058;2023-05-10T11:07:55;6.03;;;2.40;;
71125;SDS011;58785;55.566;38.058;2023-05-10T11:10:23;4.55;;;1.65;;
71125;SDS011;58785;55.566;38.058;2023-05-10T11:12:53;5.10;;;1.83;;
71125;SDS011;58785;55.566;38.058;2023-05-10T11:15:32;5.18;;;1.73;;
71125;SDS011;58785;55.566;38.058;2023-05-10T11:18:01;6.80;;;2.10;;
71125;SDS011;58785;55.566;38.058;2023-05-10T11:20:42;7.13;;;1.90;;
71125;SDS011;58785;55.566;38.058;2023-05-10T11:23:11;5.83;;;2.23;;
71125;SDS011;58785;55.566;38.058;2023-05-10T11:25:44;5.60;;;1.80;;
71125;SDS011;58785;55.566;38.058;2023-05-10T11:28:11;5.50;;;2.08;;
71125;SDS011;58785;55.566;38.058;2023-05-10T11:30:38;5.30;;;2.08;;
71125;SDS011;58785;55.566;38.058;2023-05-10T11:33:05;6.67;;;1.87;;
71125;SDS011;58785;55.566;38.058;2023-05-10T11:35:38;5.90;;;2.03;;
71125;SDS011;58785;55.566;38.058;2023-05-10T11:38:08;6.28;;;2.03;;
71125;SDS011;58785;55.566;38.058;2023-05-10T11:40:37;7.53;;;1.92;;
71125;SDS011;58785;55.566;38.058;2023-05-10T11:43:04;6.20;;;1.80;;
71125;SDS011;58785;55.566;38.058;2023-05-10T11:45:34;6.57;;;2.07;;
71125;SDS011;58785;55.566;38.058;2023-05-10T11:48:00;6.38;;;2.08;;
71125;SDS011;58785;55.566;38.058;2023-05-10T11:50:27;4.93;;;1.90;;
71125;SDS011;58785;55.566;38.058;2023-05-10T11:52:56;5.45;;;1.60;;
71125;SDS011;58785;55.566;38.058;2023-05-10T11:55:22;5.68;;;2.15;;
71125;SDS011;58785;55.566;38.058;2023-05-10T11:57:52;6.83;;;2.00;;
71125;SDS011;58785;55.566;38.058;2023-05-10T12:00:19;6.90;;;2.10;;
71125;SDS011;58785;55.566;38.058;2023-05-10T12:02:46;4.85;;;2.05;;
71125;SDS011;58785;55.566;38.058;2023-05-10T12:05:13;6.60;;;1.70;;
71125;SDS011;58785;55.566;38.058;2023-05-10T12:07:39;4.97;;;1.45;;
71125;SDS011;58785;55.566;38.058;2023-05-10T12:12:38;4.68;;;2.00;;
71125;SDS011;58785;55.566;38.058;2023-05-10T12:15:11;5.18;;;1.92;;
71125;SDS011;58785;55.566;38.058;2023-05-10T12:17:41;5.97;;;1.77;;
71125;SDS011;58785;55.566;38.058;2023-05-10T12:20:19;8.40;;;2.83;;
71125;SDS011;58785;55.566;38.058;2023-05-10T12:22:47;6.05;;;2.13;;
71125;SDS011;58785;55.566;38.058;2023-05-10T12:25:17;6.85;;;2.30;;
71125;SDS011;58785;55.566;38.058;2023-05-10T12:27:56;5.00;;;2.10;;
71125;SDS011;58785;55.566;38.058;2023-05-10T12:30:26;6.45;;;2.20;;
71125;SDS011;58785;55.566;38.058;2023-05-10T12:32:53;6.07;;;1.70;;
71125;SDS011;58785;55.566;38.058;2023-05-10T12:35:24;6.05;;;1.70;;
71125;SDS011;58785;55.566;38.058;2023-05-10T12:37:50;6.30;;;1.60;;
71125;SDS011;58785;55.566;38.058;2023-05-10T12:40:16;5.63;;;1.73;;
71125;SDS011;58785;55.566;38.058;2023-05-10T12:42:43;5.40;;;2.00;;
71125;SDS011;58785;55.566;38.058;2023-05-10T12:45:10;5.03;;;2.20;;
71125;SDS011;58785;55.566;38.058;2023-05-10T12:47:36;7.05;;;1.60;;
71125;SDS011;58785;55.566;38.058;2023-05-10T12:50:02;4.95;;;1.80;;
71125;SDS011;58785;55.566;38.058;2023-05-10T12:52:31;5.53;;;1.83;;
71125;SDS011;58785;55.566;38.058;2023-05-10T12:54:58;6.38;;;1.80;;
71125;SDS011;58785;55.566;38.058;2023-05-10T12:57:25;6.67;;;1.97;;
71125;SDS011;58785;55.566;38.058;2023-05-10T12:59:50;5.32;;;1.50;;
71125;SDS011;58785;55.566;38.058;2023-05-10T13:02:16;4.93;;;1.77;;
71125;SDS011;58785;55.566;38.058;2023-05-10T13:04:46;8.77;;;1.63;;
71125;SDS011;58785;55.566;38.058;2023-05-10T13:07:12;4.97;;;1.75;;
71125;SDS011;58785;55.566;38.058;2023-05-10T13:09:38;4.90;;;1.73;;
71125;SDS011;58785;55.566;38.058;2023-05-10T13:12:04;5.80;;;2.10;;
71125;SDS011;58785;55.566;38.058;2023-05-10T13:14:30;5.37;;;1.80;;
71125;SDS011;58785;55.566;38.058;2023-05-10T13:16:56;6.55;;;2.10;;
71125;SDS011;58785;55.566;38.058;2023-05-10T13:19:22;6.45;;;1.85;;
71125;SDS011;58785;55.566;38.058;2023-05-10T13:21:48;4.73;;;1.80;;
71125;SDS011;58785;55.566;38.058;2023-05-10T13:24:13;6.18;;;2.33;;
71125;SDS011;58785;55.566;38.058;2023-05-10T13:26:39;4.57;;;1.60;;
71125;SDS011;58785;55.566;38.058;2023-05-10T13:29:06;4.70;;;1.70;;
71125;SDS011;58785;55.566;38.058;2023-05-10T13:31:33;4.82;;;1.70;;
71125;SDS011;58785;55.566;38.058;2023-05-10T13:33:59;5.32;;;1.60;;
71125;SDS011;58785;55.566;38.058;2023-05-10T13:36:24;5.80;;;1.77;;
71125;SDS011;58785;55.566;38.058;2023-05-10T13:38:50;6.75;;;2.10;;
71125;SDS011;58785;55.566;38.058;2023-05-10T13:41:16;5.47;;;1.87;;
71125;SDS011;58785;55.566;38.058;2023-05-10T13:43:42;6.38;;;2.08;;
71125;SDS011;58785;55.566;38.058;2023-05-10T13:46:07;6.27;;;2.03;;
71125;SDS011;58785;55.566;38.058;2023-05-10T13:48:33;5.57;;;1.80;;
71125;SDS011;58785;55.566;38.058;2023-05-10T13:50:59;5.85;;;2.00;;
71125;SDS011;58785;55.566;38.058;2023-05-10T13:53:25;5.30;;;2.30;;
71125;SDS011;58785;55.566;38.058;2023-05-10T13:55:51;6.13;;;1.92;;
71125;SDS011;58785;55.566;38.058;2023-05-10T13:58:16;8.80;;;1.85;;
71125;SDS011;58785;55.566;38.058;2023-05-10T14:00:42;7.13;;;1.80;;
71125;SDS011;58785;55.566;38.058;2023-05-10T14:03:08;7.10;;;1.90;;
71125;SDS011;58785;55.566;38.058;2023-05-10T14:05:36;5.50;;;1.80;;
71125;SDS011;58785;55.566;38.058;2023-05-10T14:08:02;7.43;;;2.10;;
71125;SDS011;58785;55.566;38.058;2023-05-10T14:10:29;7.75;;;1.88;;
71125;SDS011;58785;55.566;38.058;2023-05-10T14:12:55;5.97;;;1.80;;
71125;SDS011;58785;55.566;38.058;2023-05-10T14:15:21;5.00;;;1.67;;
71125;SDS011;58785;55.566;38.058;2023-05-10T14:17:46;5.95;;;1.80;;
71125;SDS011;58785;55.566;38.058;2023-05-10T14:20:12;7.63;;;2.15;;
71125;SDS011;58785;55.566;38.058;2023-05-10T14:22:38;5.50;;;1.83;;
71125;SDS011;58785;55.566;38.058;2023-05-10T14:25:04;11.48;;;2.15;;
71125;SDS011;58785;55.566;38.058;2023-05-10T14:27:31;6.00;;;2.30;;
71125;SDS011;58785;55.566;38.058;2023-05-10T14:29:57;5.23;;;1.97;;
71125;SDS011;58785;55.566;38.058;2023-05-10T14:32:23;6.53;;;2.00;;
71125;SDS011;58785;55.566;38.058;2023-05-10T14:34:48;6.33;;;2.00;;
71125;SDS011;58785;55.566;38.058;2023-05-10T14:37:14;5.68;;;2.10;;
71125;SDS011;58785;55.566;38.058;2023-05-10T14:39:40;5.30;;;1.77;;
71125;SDS011;58785;55.566;38.058;2023-05-10T14:42:07;5.40;;;2.08;;
71125;SDS011;58785;55.566;38.058;2023-05-10T14:44:33;6.05;;;2.10;;
71125;SDS011;58785;55.566;38.058;2023-05-10T14:46:59;5.47;;;2.00;;
71125;SDS011;58785;55.566;38.058;2023-05-10T14:49:24;5.93;;;1.92;;
71125;SDS011;58785;55.566;38.058;2023-05-10T14:51:51;6.43;;;2.08;;
71125;SDS011;58785;55.566;38.058;2023-05-10T14:54:17;8.43;;;1.70;;
71125;SDS011;58785;55.566;38.058;2023-05-10T14:56:43;6.72;;;1.85;;
71125;SDS011;58785;55.566;38.058;2023-05-10T14:59:09;6.40;;;1.80;;
71125;SDS011;58785;55.566;38.058;2023-05-10T15:01:35;4.37;;;1.40;;
71125;SDS011;58785;55.566;38.058;2023-05-10T15:04:03;4.65;;;1.58;;
71125;SDS011;58785;55.566;38.058;2023-05-10T15:06:33;5.65;;;1.80;;
71125;SDS011;58785;55.566;38.058;2023-05-10T15:09:00;5.05;;;1.92;;
71125;SDS011;58785;55.566;38.058;2023-05-10T15:11:30;7.20;;;1.90;;